Time;durP1;ratioP1;P1;durP2;ratioP2;P2;SDS_P1;SDS_P2;PMS_P1;PMS_P2;Temp;Humidity;BMP_temperature;BMP_pressure;BME280_temperature;BME280_humidity;BME280_pressure;Samples;Min_cycle;Max_cycle;Signal;HPM_P1;HPM_P2
2023/04/07 00:00:41;;;;;;;46.88;35.88;;;7.20;99.90;;;;;;5077103;28;20181;-47
2023/04/07 00:03:07;;;;;;;50.17;37.45;;;7.20;99.90;;;;;;5041984;28;20052;-44
2023/04/07 00:05:33;;;;;;;49.83;38.30;;;7.20;99.90;;;;;;5075837;28;20054;-38
2023/04/07 00:07:59;;;;;;;48.20;37.65;;;7.20;99.90;;;;;;5072100;28;20040;-39
2023/04/07 00:10:25;;;;;;;50.55;37.83;;;7.20;99.90;;;;;;5056424;28;20388;-41
2023/04/07 00:12:51;;;;;;;50.95;38.33;;;7.20;99.90;;;;;;5073595;28;20498;-41
2023/04/07 00:15:16;;;;;;;49.80;37.28;;;7.20;99.90;;;;;;5075919;28;20050;-42
2023/04/07 00:17:42;;;;;;;53.58;37.25;;;7.20;99.90;;;;;;5076244;28;20040;-44
2023/04/07 00:20:08;;;;;;;66.15;40.05;;;7.20;99.90;;;;;;5077425;28;20081;-41
2023/04/07 00:22:33;;;;;;;52.00;38.60;;;7.20;99.90;;;;;;5071832;28;20066;-41
2023/04/07 00:24:59;;;;;;;53.50;38.40;;;7.20;99.90;;;;;;5067142;28;20036;-37
2023/04/07 00:27:25;;;;;;;53.67;39.05;;;7.20;99.90;;;;;;5071492;28;20105;-45
2023/04/07 00:29:53;;;;;;;53.47;38.47;;;7.20;99.90;;;;;;5055752;28;20052;-39
2023/04/07 00:32:19;;;;;;;54.35;39.17;;;7.20;99.90;;;;;;5067809;28;20066;-45
2023/04/07 00:34:45;;;;;;;58.13;40.42;;;7.20;99.90;;;;;;5055471;28;20510;-40
2023/04/07 00:37:10;;;;;;;58.92;42.08;;;7.20;99.90;;;;;;5056093;28;20040;-47
2023/04/07 00:39:36;;;;;;;54.03;40.25;;;7.20;99.90;;;;;;5056392;28;20470;-40
2023/04/07 00:42:06;;;;;;;60.30;41.47;;;7.20;99.90;;;;;;5055567;28;20044;-44
2023/04/07 00:44:32;;;;;;;54.33;39.40;;;7.20;99.90;;;;;;5038183;28;20127;-43
2023/04/07 00:46:59;;;;;;;60.00;41.13;;;7.20;99.90;;;;;;5055893;28;20044;-43
2023/04/07 00:49:27;;;;;;;66.88;43.13;;;7.20;99.90;;;;;;5038381;28;20491;-40
2023/04/07 00:51:53;;;;;;;72.82;42.88;;;7.20;99.90;;;;;;5075974;28;20247;-41
2023/04/07 00:54:20;;;;;;;57.60;41.22;;;7.20;99.90;;;;;;5076174;28;20040;-50
2023/04/07 00:56:46;;;;;;;57.33;41.13;;;7.20;99.90;;;;;;5075526;28;20054;-41
2023/04/07 00:59:11;;;;;;;54.88;40.50;;;7.30;99.90;;;;;;5075811;28;20052;-45
2023/04/07 01:01:46;;;;;;;59.53;40.78;;;7.30;99.90;;;;;;5075664;28;20048;-44
2023/04/07 01:04:32;;;;;;;60.17;40.03;;;7.30;99.90;;;;;;5075921;28;20109;-45
2023/04/07 01:07:10;;;;;;;59.22;40.17;;;7.30;99.90;;;;;;5075443;28;20097;-37
2023/04/07 01:09:41;;;;;;;52.78;39.40;;;7.30;99.90;;;;;;5057629;28;20055;-42
2023/04/07 01:12:32;;;;;;;60.45;39.25;;;7.30;99.90;;;;;;5056215;28;20052;-44
2023/04/07 01:15:08;;;;;;;56.08;38.17;;;7.30;99.90;;;;;;5053220;28;20071;-45
2023/04/07 01:17:37;;;;;;;61.53;40.10;;;7.30;99.90;;;;;;5071801;28;20590;-39
2023/04/07 01:20:07;;;;;;;65.72;40.47;;;7.30;99.90;;;;;;5065006;28;20056;-39
2023/04/07 01:23:01;;;;;;;51.13;36.90;;;7.30;99.90;;;;;;5054955;28;20511;-45
2023/04/07 01:25:45;;;;;;;60.47;39.88;;;7.30;99.90;;;;;;5049145;28;20136;-40
2023/04/07 01:28:32;;;;;;;67.20;39.58;;;7.30;99.90;;;;;;5047839;28;20567;-44
2023/04/07 01:31:00;;;;;;;71.05;40.70;;;7.30;99.90;;;;;;5024914;28;20058;-37
2023/04/07 01:33:30;;;;;;;53.75;38.75;;;7.40;99.90;;;;;;5071797;28;20104;-38
2023/04/07 01:35:59;;;;;;;55.20;39.05;;;7.40;99.90;;;;;;5075147;28;20056;-36
2023/04/07 01:38:25;;;;;;;69.47;41.13;;;7.40;99.90;;;;;;5075942;28;20483;-42
2023/04/07 01:40:52;;;;;;;56.45;39.53;;;7.40;99.90;;;;;;5075131;28;20048;-40
2023/04/07 01:43:18;;;;;;;50.65;36.72;;;7.40;99.90;;;;;;5073595;28;20047;-43
2023/04/07 01:45:44;;;;;;;48.10;36.83;;;7.40;99.90;;;;;;5053855;28;20114;-38
2023/04/07 01:48:11;;;;;;;56.05;38.40;;;7.40;99.90;;;;;;5056024;28;20051;-41
2023/04/07 01:50:37;;;;;;;50.45;35.80;;;7.40;99.90;;;;;;5055952;28;20106;-39
2023/04/07 01:53:04;;;;;;;50.78;36.70;;;7.40;99.90;;;;;;5057559;28;20092;-36
2023/04/07 01:55:31;;;;;;;49.13;36.38;;;7.40;99.90;;;;;;5074251;28;20394;-37
2023/04/07 01:57:56;;;;;;;51.70;37.08;;;7.40;99.90;;;;;;5044683;28;20052;-42
2023/04/07 02:00:22;;;;;;;71.53;39.05;;;7.40;99.90;;;;;;5075762;28;20048;-41
2023/04/07 02:02:53;;;;;;;53.45;35.58;;;7.40;99.90;;;;;;5063726;28;20051;-43
2023/04/07 02:05:20;;;;;;;46.33;34.10;;;7.50;99.90;;;;;;5037274;28;20059;-36
2023/04/07 02:07:52;;;;;;;52.47;35.33;;;7.50;99.90;;;;;;5049609;28;20040;-45
2023/04/07 02:10:22;;;;;;;50.58;36.05;;;7.50;99.90;;;;;;5053481;28;20067;-41
2023/04/07 02:12:48;;;;;;;51.08;34.70;;;7.50;99.90;;;;;;5068092;28;20050;-42
2023/04/07 02:15:16;;;;;;;48.78;35.83;;;7.50;99.90;;;;;;5035542;28;20079;-45
2023/04/07 02:17:46;;;;;;;50.45;35.33;;;7.50;99.90;;;;;;5055202;28;20487;-42
2023/04/07 02:20:14;;;;;;;48.33;35.40;;;7.50;99.90;;;;;;5055200;28;20090;-43
2023/04/07 02:22:41;;;;;;;50.50;33.90;;;7.50;99.90;;;;;;5068390;28;20151;-40
2023/04/07 02:25:30;;;;;;;47.03;33.75;;;7.50;99.90;;;;;;5066105;28;20511;-40
2023/04/07 02:27:57;;;;;;;45.38;33.28;;;7.50;99.90;;;;;;5043734;28;20075;-38
2023/04/07 02:30:24;;;;;;;55.58;35.42;;;7.60;99.90;;;;;;5056464;28;20053;-45
2023/04/07 02:32:50;;;;;;;56.78;35.78;;;7.60;99.90;;;;;;5045886;28;20041;-45
2023/04/07 02:35:16;;;;;;;65.35;36.75;;;7.60;99.90;;;;;;5056426;28;20062;-37
2023/04/07 02:37:42;;;;;;;55.35;34.17;;;7.50;99.90;;;;;;5059001;28;20465;-42
2023/04/07 02:40:08;;;;;;;38.60;31.33;;;7.60;99.90;;;;;;5058827;28;20051;-40
2023/04/07 02:42:35;;;;;;;43.35;33.05;;;7.50;99.90;;;;;;5058424;28;20087;-43
2023/04/07 02:45:02;;;;;;;51.13;34.95;;;7.50;99.90;;;;;;5056759;28;20597;-36
2023/04/07 02:47:27;;;;;;;48.42;34.72;;;7.60;99.90;;;;;;5057846;28;20052;-44
2023/04/07 02:49:53;;;;;;;45.55;33.78;;;7.60;99.90;;;;;;5057967;28;20093;-46
2023/04/07 02:52:19;;;;;;;49.85;34.78;;;7.60;99.90;;;;;;5058453;28;20435;-42
2023/04/07 02:54:45;;;;;;;51.20;35.30;;;7.60;99.90;;;;;;5057079;28;20454;-42
2023/04/07 02:57:12;;;;;;;52.33;35.13;;;7.60;99.90;;;;;;5059293;28;20059;-36
2023/04/07 02:59:38;;;;;;;47.35;33.97;;;7.60;99.90;;;;;;5058448;28;20090;-39
2023/04/07 03:02:03;;;;;;;52.08;35.60;;;7.50;99.90;;;;;;5058548;28;20071;-44
2023/04/07 03:04:30;;;;;;;90.40;39.67;;;7.60;99.90;;;;;;5039736;28;20045;-38
2023/04/07 03:06:56;;;;;;;51.25;32.05;;;7.60;99.90;;;;;;5057897;28;20049;-38
2023/04/07 03:09:22;;;;;;;32.97;28.77;;;7.60;99.90;;;;;;5057675;28;20048;-37
2023/04/07 03:11:48;;;;;;;47.70;32.50;;;7.60;99.90;;;;;;5057696;28;20191;-39
2023/04/07 03:14:15;;;;;;;60.55;32.40;;;7.60;99.90;;;;;;5057706;28;20056;-44
2023/04/07 03:16:41;;;;;;;47.53;30.38;;;7.60;99.90;;;;;;5057030;28;20118;-36
2023/04/07 03:19:07;;;;;;;50.10;28.77;;;7.60;99.90;;;;;;5058331;28;20060;-43
2023/04/07 03:21:34;;;;;;;38.20;26.70;;;7.60;99.90;;;;;;5057803;28;20049;-40
2023/04/07 03:24:00;;;;;;;50.67;27.17;;;7.70;99.90;;;;;;5057619;28;20048;-46
2023/04/07 03:26:25;;;;;;;35.33;26.92;;;7.70;99.90;;;;;;5056420;28;20422;-35
2023/04/07 03:28:51;;;;;;;28.67;20.02;;;7.70;99.90;;;;;;5057476;28;20147;-36
2023/04/07 03:31:16;;;;;;;30.52;19.83;;;7.70;99.90;;;;;;5057368;28;20157;-39
2023/04/07 03:33:42;;;;;;;33.17;21.27;;;7.70;99.90;;;;;;5058573;28;20051;-39
2023/04/07 03:36:08;;;;;;;32.72;18.55;;;7.70;99.90;;;;;;5039075;28;20071;-39
2023/04/07 03:38:34;;;;;;;35.58;19.42;;;7.80;99.90;;;;;;5038122;28;20060;-40
2023/04/07 03:41:00;;;;;;;32.35;18.15;;;7.70;99.90;;;;;;5057183;28;20063;-42
2023/04/07 03:43:26;;;;;;;51.22;21.02;;;7.80;99.90;;;;;;5072642;28;20052;-39
2023/04/07 03:45:52;;;;;;;37.40;21.40;;;7.80;99.90;;;;;;5074245;28;20074;-41
2023/04/07 03:48:18;;;;;;;51.72;22.42;;;7.80;99.90;;;;;;5061675;28;20488;-42
2023/04/07 03:50:45;;;;;;;60.90;25.95;;;7.80;99.90;;;;;;5057724;28;20041;-48
2023/04/07 03:53:12;;;;;;;71.63;29.38;;;7.80;99.90;;;;;;5057810;28;20059;-40
2023/04/07 03:55:38;;;;;;;58.92;28.20;;;7.80;99.90;;;;;;5056774;28;20056;-38
2023/04/07 03:58:04;;;;;;;51.90;28.05;;;7.80;99.90;;;;;;5056761;28;20150;-44
2023/04/07 04:00:32;;;;;;;65.35;27.05;;;7.80;99.90;;;;;;5054530;28;20492;-43
2023/04/07 04:02:58;;;;;;;57.17;27.70;;;7.70;99.90;;;;;;5038186;28;20058;-43
2023/04/07 04:05:23;;;;;;;46.28;26.35;;;7.80;99.90;;;;;;5054713;28;20049;-42
2023/04/07 04:07:51;;;;;;;50.38;26.27;;;7.70;99.90;;;;;;5056544;28;20102;-46
2023/04/07 04:10:17;;;;;;;72.93;29.20;;;7.70;99.90;;;;;;5057068;28;20055;-38
2023/04/07 04:12:43;;;;;;;43.03;27.15;;;7.70;99.90;;;;;;5056261;28;20166;-38
2023/04/07 04:15:09;;;;;;;45.05;28.83;;;7.80;99.90;;;;;;5066421;28;20588;-37
2023/04/07 04:17:35;;;;;;;42.20;27.80;;;7.80;99.90;;;;;;5040666;28;20477;-37
2023/04/07 04:20:01;;;;;;;46.58;29.63;;;7.80;99.90;;;;;;5056794;28;20048;-45
2023/04/07 04:22:27;;;;;;;47.72;31.42;;;7.80;99.90;;;;;;5073786;28;20073;-41
2023/04/07 04:24:53;;;;;;;45.40;31.67;;;7.80;99.90;;;;;;5065295;28;20057;-43
2023/04/07 04:27:18;;;;;;;53.92;33.55;;;7.70;99.90;;;;;;5074449;28;20044;-42
2023/04/07 04:29:44;;;;;;;49.60;32.80;;;7.70;99.90;;;;;;5077148;28;20105;-42
2023/04/07 04:32:10;;;;;;;48.50;32.58;;;7.70;99.90;;;;;;5071996;28;20040;-42
2023/04/07 04:34:36;;;;;;;48.38;32.58;;;7.70;99.90;;;;;;5038160;28;20922;-43
2023/04/07 04:37:01;;;;;;;39.38;29.15;;;7.70;99.90;;;;;;5038743;28;20060;-41
2023/04/07 04:39:27;;;;;;;56.25;33.22;;;7.70;99.90;;;;;;5067626;28;20087;-39
2023/04/07 04:41:52;;;;;;;38.17;28.33;;;7.70;99.90;;;;;;5076532;28;20134;-42
2023/04/07 04:44:18;;;;;;;52.28;30.73;;;7.70;99.90;;;;;;5075647;28;20517;-45
2023/04/07 04:46:44;;;;;;;55.05;32.60;;;7.60;99.90;;;;;;5042561;28;20127;-37
2023/04/07 04:49:09;;;;;;;41.65;30.73;;;7.70;99.90;;;;;;5067678;28;20516;-36
2023/04/07 04:51:35;;;;;;;38.38;28.90;;;7.70;99.90;;;;;;5075871;28;20048;-45
2023/04/07 04:54:02;;;;;;;52.38;32.28;;;7.60;99.90;;;;;;5076000;28;20035;-39
2023/04/07 04:56:28;;;;;;;60.55;32.75;;;7.60;99.90;;;;;;5051781;28;20403;-42
2023/04/07 04:58:54;;;;;;;58.53;31.95;;;7.60;99.90;;;;;;5054778;28;20043;-42
2023/04/07 05:01:20;;;;;;;61.80;33.72;;;7.70;99.90;;;;;;5073480;28;20062;-44
2023/04/07 05:03:45;;;;;;;58.22;31.75;;;7.70;99.90;;;;;;5076190;28;20067;-41
2023/04/07 05:06:11;;;;;;;55.33;32.50;;;7.70;99.90;;;;;;5075126;28;20653;-45
2023/04/07 05:08:36;;;;;;;47.33;30.58;;;7.60;99.90;;;;;;5048521;28;20084;-44
2023/04/07 05:11:02;;;;;;;55.67;31.95;;;7.70;99.90;;;;;;5055420;28;20194;-43
2023/04/07 05:13:29;;;;;;;68.53;33.15;;;7.70;99.90;;;;;;5064515;28;20554;-39
2023/04/07 05:15:55;;;;;;;53.25;31.58;;;7.60;99.90;;;;;;5074508;28;20040;-44
2023/04/07 05:18:21;;;;;;;48.45;31.17;;;7.60;99.90;;;;;;5075785;28;20043;-44
2023/04/07 05:20:48;;;;;;;50.90;31.77;;;7.70;99.90;;;;;;5075343;28;20136;-41
2023/04/07 05:23:13;;;;;;;54.20;32.42;;;7.70;99.90;;;;;;5068187;28;20078;-36
2023/04/07 05:25:39;;;;;;;50.20;30.95;;;7.70;99.90;;;;;;5071396;28;20884;-36
2023/04/07 05:28:05;;;;;;;55.45;31.45;;;7.70;99.90;;;;;;5046648;28;20103;-40
2023/04/07 05:30:30;;;;;;;37.22;29.48;;;7.70;99.90;;;;;;5052943;28;20495;-43
2023/04/07 05:32:56;;;;;;;48.92;31.27;;;7.70;99.90;;;;;;5073346;28;20399;-40
2023/04/07 05:35:22;;;;;;;40.65;30.67;;;7.70;99.90;;;;;;5071736;28;20048;-38
2023/04/07 05:37:48;;;;;;;46.50;31.20;;;7.70;99.90;;;;;;5037168;28;20169;-42
2023/04/07 05:40:14;;;;;;;46.08;31.67;;;7.70;99.90;;;;;;5058443;28;20070;-38
2023/04/07 05:42:40;;;;;;;36.45;30.10;;;7.70;99.90;;;;;;5075750;28;20044;-35
2023/04/07 05:45:07;;;;;;;38.47;28.98;;;7.70;99.90;;;;;;5053651;28;20117;-42
2023/04/07 05:47:32;;;;;;;36.53;29.98;;;7.70;99.90;;;;;;5056562;28;20453;-44
2023/04/07 05:49:58;;;;;;;36.35;29.13;;;7.70;99.90;;;;;;5058085;28;20044;-43
2023/04/07 05:52:24;;;;;;;34.67;27.85;;;7.60;99.90;;;;;;5075444;28;20073;-36
2023/04/07 05:54:49;;;;;;;40.35;28.88;;;7.60;99.90;;;;;;5073803;28;20413;-44
2023/04/07 05:57:15;;;;;;;32.38;27.38;;;7.60;99.90;;;;;;5074416;28;20040;-44
2023/04/07 05:59:41;;;;;;;32.17;26.80;;;7.60;99.90;;;;;;5059549;28;20532;-48
2023/04/07 06:02:06;;;;;;;33.53;27.50;;;7.60;99.90;;;;;;5052226;28;20558;-43
2023/04/07 06:04:34;;;;;;;38.38;29.25;;;7.60;99.90;;;;;;5053111;28;20049;-41
2023/04/07 06:07:00;;;;;;;31.63;26.48;;;7.60;99.90;;;;;;5054099;28;20089;-38
2023/04/07 06:09:26;;;;;;;35.55;27.25;;;7.60;99.90;;;;;;5054027;28;20472;-43
2023/04/07 06:11:52;;;;;;;31.08;25.13;;;7.60;99.90;;;;;;5054473;28;20044;-44
2023/04/07 06:14:17;;;;;;;33.17;25.88;;;7.50;99.90;;;;;;5070097;28;20047;-42
2023/04/07 06:16:43;;;;;;;32.88;26.05;;;7.60;99.90;;;;;;5074229;28;20454;-43
2023/04/07 06:19:09;;;;;;;28.02;24.88;;;7.60;99.90;;;;;;5057098;28;20117;-39
2023/04/07 06:21:35;;;;;;;34.40;24.83;;;7.60;99.90;;;;;;5063125;28;20620;-39
2023/04/07 06:24:00;;;;;;;28.10;23.50;;;7.60;99.90;;;;;;5039041;28;20285;-42
2023/04/07 06:26:27;;;;;;;28.63;23.08;;;7.60;99.90;;;;;;5053849;28;20044;-45
2023/04/07 06:28:52;;;;;;;24.35;21.10;;;7.50;99.90;;;;;;5056957;28;20055;-43
2023/04/07 06:31:18;;;;;;;26.85;22.35;;;7.60;99.90;;;;;;5052712;28;20482;-42
2023/04/07 06:33:44;;;;;;;24.73;21.85;;;7.60;99.90;;;;;;5072405;28;20593;-45
2023/04/07 06:36:13;;;;;;;25.27;21.27;;;7.60;99.90;;;;;;5059178;28;20052;-48
2023/04/07 06:38:39;;;;;;;24.58;21.92;;;7.60;99.90;;;;;;5024118;28;20061;-43
2023/04/07 06:41:05;;;;;;;25.50;21.48;;;7.60;99.90;;;;;;5043166;28;20044;-38
2023/04/07 06:43:30;;;;;;;22.45;20.05;;;7.60;99.90;;;;;;5019619;28;20094;-44
2023/04/07 06:45:56;;;;;;;26.73;22.58;;;7.60;99.90;;;;;;5036598;28;20492;-40
2023/04/07 06:48:22;;;;;;;22.38;20.13;;;7.60;99.90;;;;;;5052173;28;20351;-37
2023/04/07 06:50:51;;;;;;;22.27;19.90;;;7.60;99.90;;;;;;5051842;28;20562;-39
2023/04/07 06:53:17;;;;;;;23.17;20.70;;;7.60;99.90;;;;;;5053115;28;20048;-42
2023/04/07 06:55:43;;;;;;;23.67;20.77;;;7.70;99.90;;;;;;5053249;28;20040;-46
2023/04/07 06:58:08;;;;;;;23.67;21.23;;;7.70;99.90;;;;;;5036763;28;20542;-37
2023/04/07 07:00:35;;;;;;;21.70;19.40;;;7.70;99.90;;;;;;5054118;28;20051;-39
2023/04/07 07:03:01;;;;;;;22.88;20.38;;;7.70;99.90;;;;;;5053592;28;20622;-41
2023/04/07 07:05:26;;;;;;;23.55;21.15;;;7.70;99.90;;;;;;5052605;28;20059;-36
2023/04/07 07:07:52;;;;;;;24.67;21.92;;;7.70;99.90;;;;;;5054233;28;20215;-41
2023/04/07 07:10:19;;;;;;;22.05;19.80;;;7.70;99.90;;;;;;5049362;28;20059;-42
2023/04/07 07:12:45;;;;;;;21.25;19.10;;;7.80;99.90;;;;;;5029243;28;20086;-43
2023/04/07 07:15:10;;;;;;;21.45;19.25;;;7.80;99.90;;;;;;5043251;28;20056;-47
2023/04/07 07:17:36;;;;;;;22.90;20.50;;;7.80;99.90;;;;;;5032049;28;20303;-40
2023/04/07 07:20:02;;;;;;;27.70;22.90;;;7.90;99.90;;;;;;5053605;28;20749;-50
2023/04/07 07:22:28;;;;;;;26.95;24.05;;;7.90;99.90;;;;;;5053352;28;20517;-45
2023/04/07 07:24:53;;;;;;;24.23;21.83;;;8.00;99.90;;;;;;5028553;28;20053;-38
2023/04/07 07:27:19;;;;;;;22.73;20.45;;;8.00;99.90;;;;;;5052940;28;20411;-44
2023/04/07 07:29:44;;;;;;;25.20;22.50;;;8.00;99.90;;;;;;5050050;28;20475;-43
2023/04/07 07:32:10;;;;;;;24.60;22.08;;;8.10;99.90;;;;;;5055023;28;20048;-44
2023/04/07 07:34:36;;;;;;;25.23;22.58;;;8.10;99.90;;;;;;5037033;28;20052;-43
2023/04/07 07:37:01;;;;;;;24.65;22.08;;;8.10;99.90;;;;;;5037887;28;20048;-44
2023/04/07 07:39:28;;;;;;;24.15;21.67;;;8.10;99.90;;;;;;5057067;28;20045;-44
2023/04/07 07:41:55;;;;;;;21.42;19.38;;;8.20;99.90;;;;;;5056917;28;20404;-41
2023/04/07 07:44:21;;;;;;;23.63;21.15;;;8.20;99.90;;;;;;5056559;28;20066;-44
2023/04/07 07:46:48;;;;;;;22.63;20.30;;;8.20;99.90;;;;;;5056701;28;20060;-42
2023/04/07 07:49:14;;;;;;;19.90;17.80;;;8.30;99.90;;;;;;5056975;28;20056;-39
2023/04/07 07:51:40;;;;;;;21.30;19.10;;;8.30;99.90;;;;;;5038510;28;20053;-36
2023/04/07 07:54:05;;;;;;;21.88;19.52;;;8.30;99.90;;;;;;5038305;28;20056;-41
2023/04/07 07:56:31;;;;;;;23.80;21.30;;;8.30;99.90;;;;;;5057058;28;20155;-39
2023/04/07 07:58:57;;;;;;;23.92;21.42;;;8.30;99.90;;;;;;5047489;28;20037;-45
2023/04/07 08:01:22;;;;;;;21.05;18.85;;;8.30;99.90;;;;;;5042505;28;20064;-44
2023/04/07 08:03:48;;;;;;;22.65;20.27;;;8.30;99.90;;;;;;5055729;28;20523;-39
2023/04/07 08:06:13;;;;;;;21.00;18.73;;;8.20;99.90;;;;;;5049158;28;20214;-47
2023/04/07 08:08:39;;;;;;;24.50;21.67;;;8.20;99.90;;;;;;5055448;28;20036;-37
2023/04/07 08:11:05;;;;;;;22.27;19.88;;;8.30;99.90;;;;;;5055187;28;20053;-43
2023/04/07 08:13:31;;;;;;;22.40;19.98;;;8.30;99.90;;;;;;5055401;28;20048;-45
2023/04/07 08:15:56;;;;;;;22.95;20.52;;;8.20;99.90;;;;;;5056993;28;20040;-40
2023/04/07 08:18:22;;;;;;;23.30;20.85;;;8.20;99.90;;;;;;5056882;28;20052;-45
2023/04/07 08:20:48;;;;;;;20.05;17.92;;;8.20;99.90;;;;;;5038066;28;20068;-43
2023/04/07 08:23:13;;;;;;;22.17;19.45;;;8.20;99.90;;;;;;5056826;28;20044;-38
2023/04/07 08:25:39;;;;;;;20.10;17.83;;;8.20;99.90;;;;;;5056624;28;20534;-38
2023/04/07 08:28:05;;;;;;;21.80;19.45;;;8.20;99.90;;;;;;5056700;28;20044;-38
2023/04/07 08:30:31;;;;;;;23.98;18.92;;;8.20;99.90;;;;;;5056258;28;20098;-41
2023/04/07 08:32:57;;;;;;;19.25;17.15;;;8.20;99.90;;;;;;5057758;28;20127;-48
2023/04/07 08:35:22;;;;;;;19.73;17.63;;;8.20;99.90;;;;;;5055928;28;20049;-38
2023/04/07 08:37:49;;;;;;;18.25;16.50;;;8.20;99.90;;;;;;5067285;28;20482;-42
2023/04/07 08:40:15;;;;;;;20.48;17.70;;;8.20;99.90;;;;;;5076911;28;20052;-42
2023/04/07 08:42:45;;;;;;;19.33;17.40;;;8.30;99.90;;;;;;5069722;28;20059;-47
2023/04/07 08:45:12;;;;;;;17.45;15.75;;;8.20;99.90;;;;;;5055527;28;20355;-51
2023/04/07 08:47:40;;;;;;;20.33;18.23;;;8.30;99.90;;;;;;5056075;28;20044;-38
2023/04/07 08:50:10;;;;;;;17.65;15.95;;;8.40;99.90;;;;;;5037441;28;20064;-42
2023/04/07 08:52:53;;;;;;;19.55;17.55;;;8.50;99.90;;;;;;5056166;28;20633;-41
2023/04/07 08:55:19;;;;;;;20.02;17.92;;;8.60;99.90;;;;;;5054448;28;20456;-49
2023/04/07 08:57:46;;;;;;;19.05;17.15;;;8.60;99.90;;;;;;5055031;28;20074;-44
2023/04/07 09:00:13;;;;;;;18.42;16.48;;;8.70;99.90;;;;;;5055718;28;20044;-48
2023/04/07 09:02:43;;;;;;;18.42;16.58;;;8.80;99.90;;;;;;5037484;28;20091;-39
2023/04/07 09:05:09;;;;;;;16.08;14.57;;;8.80;99.90;;;;;;5055052;28;20123;-40
2023/04/07 09:07:36;;;;;;;18.52;16.48;;;8.90;99.90;;;;;;5054789;28;20056;-48
2023/04/07 09:10:03;;;;;;;17.25;15.45;;;8.90;99.90;;;;;;5036901;28;20133;-45
2023/04/07 09:12:30;;;;;;;18.38;16.23;;;9.00;99.90;;;;;;5039084;28;20067;-43
2023/04/07 09:14:56;;;;;;;16.67;14.98;;;9.00;99.90;;;;;;5053544;28;20049;-37
2023/04/07 09:17:23;;;;;;;16.83;15.23;;;9.10;99.90;;;;;;5055696;28;20055;-41
2023/04/07 09:19:50;;;;;;;18.33;16.52;;;9.10;99.90;;;;;;5075595;28;20055;-49
2023/04/07 09:22:38;;;;;;;19.23;17.48;;;9.10;99.90;;;;;;5074903;28;20089;-45
2023/04/07 09:25:21;;;;;;;20.38;18.40;;;9.10;99.90;;;;;;5073762;28;20101;-45
2023/04/07 09:28:02;;;;;;;19.43;17.40;;;9.20;99.90;;;;;;5052759;28;20052;-40
2023/04/07 09:30:29;;;;;;;20.90;18.77;;;9.20;99.90;;;;;;5052068;28;20438;-40
2023/04/07 09:32:55;;;;;;;21.15;19.17;;;9.20;99.90;;;;;;5073359;28;20597;-46
2023/04/07 09:35:22;;;;;;;20.88;18.70;;;9.30;99.90;;;;;;5061179;28;20090;-43
2023/04/07 09:38:08;;;;;;;22.02;19.80;;;9.40;99.90;;;;;;5057394;28;20048;-43
2023/04/07 09:40:35;;;;;;;22.30;20.10;;;9.50;99.90;;;;;;5056426;28;20098;-43
2023/04/07 09:43:03;;;;;;;20.95;18.90;;;9.50;99.90;;;;;;5068397;28;20497;-44
2023/04/07 09:45:34;;;;;;;20.95;18.92;;;9.60;99.90;;;;;;5040130;28;20185;-45
2023/04/07 09:48:07;;;;;;;21.55;19.33;;;9.60;99.90;;;;;;5057312;28;20041;-40
2023/04/07 09:50:35;;;;;;;22.98;20.67;;;9.60;99.90;;;;;;5066309;28;20495;-44
2023/04/07 09:53:02;;;;;;;21.65;19.45;;;9.70;99.90;;;;;;5057647;28;20044;-43
2023/04/07 09:55:30;;;;;;;22.20;20.00;;;9.80;99.90;;;;;;5067679;28;20161;-41
2023/04/07 09:57:56;;;;;;;22.95;20.65;;;9.90;99.90;;;;;;5055281;28;20049;-43
2023/04/07 10:00:23;;;;;;;22.77;20.40;;;10.00;99.90;;;;;;5055181;28;20628;-42
2023/04/07 10:02:50;;;;;;;23.33;21.13;;;10.10;99.90;;;;;;5058619;28;20522;-49
2023/04/07 10:05:16;;;;;;;22.88;20.67;;;10.20;99.90;;;;;;5063974;28;20053;-42
2023/04/07 10:07:42;;;;;;;20.50;18.58;;;10.30;99.90;;;;;;5060567;28;20044;-40
2023/04/07 10:10:08;;;;;;;21.98;19.80;;;10.30;99.90;;;;;;5052406;28;20053;-42
2023/04/07 10:12:36;;;;;;;22.52;20.33;;;10.40;99.90;;;;;;5054090;28;20044;-47
2023/04/07 10:15:03;;;;;;;20.98;18.98;;;10.40;99.90;;;;;;5053510;28;20482;-37
2023/04/07 10:17:31;;;;;;;20.25;18.38;;;10.40;99.90;;;;;;5039483;28;20053;-41
2023/04/07 10:20:00;;;;;;;16.40;14.90;;;10.40;99.90;;;;;;5041833;28;20132;-42
2023/04/07 10:22:27;;;;;;;18.05;16.25;;;10.40;99.90;;;;;;5061321;28;20052;-43
2023/04/07 10:25:01;;;;;;;16.02;14.32;;;10.40;99.90;;;;;;5074708;28;20047;-38
2023/04/07 10:27:35;;;;;;;15.48;14.05;;;10.40;99.90;;;;;;5061554;28;20047;-43
2023/04/07 10:30:04;;;;;;;14.88;13.52;;;10.40;99.90;;;;;;5062683;28;20095;-47
2023/04/07 10:32:30;;;;;;;13.55;12.15;;;10.40;99.90;;;;;;5065452;28;20058;-46
2023/04/07 10:34:58;;;;;;;14.38;12.90;;;10.40;99.90;;;;;;5040766;28;20513;-43
2023/04/07 10:37:24;;;;;;;13.60;12.27;;;10.30;99.90;;;;;;5050574;28;20040;-42
2023/04/07 10:40:11;;;;;;;12.15;11.05;;;10.40;99.90;;;;;;5020756;28;20399;-41
2023/04/07 10:42:37;;;;;;;12.02;10.93;;;10.40;99.90;;;;;;5038381;28;20578;-44
2023/04/07 10:45:04;;;;;;;12.38;11.18;;;10.40;99.90;;;;;;5052215;28;20052;-38
2023/04/07 10:47:30;;;;;;;13.13;11.88;;;10.40;99.90;;;;;;5038325;28;20858;-46
2023/04/07 10:50:16;;;;;;;12.68;11.52;;;10.40;99.90;;;;;;5052518;28;20056;-38
2023/04/07 10:52:43;;;;;;;12.63;11.43;;;10.30;99.90;;;;;;5067677;28;20046;-39
2023/04/07 10:55:29;;;;;;;13.57;12.38;;;10.40;99.90;;;;;;5034544;28;20076;-43
2023/04/07 10:58:23;;;;;;;12.90;11.70;;;10.30;99.90;;;;;;5057077;28;20042;-46
2023/04/07 11:01:09;;;;;;;13.80;12.50;;;10.30;99.90;;;;;;5047202;28;20065;-48
2023/04/07 11:03:53;;;;;;;13.98;12.57;;;10.40;99.90;;;;;;5057956;28;20083;-46
2023/04/07 11:06:18;;;;;;;13.82;12.52;;;10.50;99.90;;;;;;5040423;28;20327;-42
2023/04/07 11:08:47;;;;;;;13.65;12.45;;;10.40;99.90;;;;;;5058387;28;20075;-42
2023/04/07 11:11:19;;;;;;;12.60;11.40;;;10.50;99.90;;;;;;5058312;28;20085;-36
2023/04/07 11:13:47;;;;;;;13.65;12.30;;;10.60;99.90;;;;;;5069540;28;20418;-45
2023/04/07 11:16:17;;;;;;;13.43;12.23;;;10.70;99.90;;;;;;5063387;28;20052;-51
2023/04/07 11:18:45;;;;;;;13.25;12.05;;;10.70;99.90;;;;;;5058008;28;20029;-42
2023/04/07 11:21:11;;;;;;;14.68;13.38;;;10.60;99.90;;;;;;5064076;28;20044;-46
2023/04/07 11:23:44;;;;;;;14.35;12.95;;;10.60;99.90;;;;;;5056291;28;20040;-50
2023/04/07 11:26:11;;;;;;;;;;;10.70;99.90;;;;;;5057181;28;20045;-40
2023/04/07 11:28:52;;;;;;;15.35;13.85;;;10.90;99.90;;;;;;5057239;28;20392;-45
2023/04/07 11:31:23;;;;;;;13.23;12.02;;;11.10;99.90;;;;;;5056880;28;20059;-37
2023/04/07 11:33:52;;;;;;;15.15;13.65;;;11.20;99.90;;;;;;5058720;28;20397;-36
2023/04/07 11:36:27;;;;;;;14.68;13.35;;;11.30;99.90;;;;;;5057004;28;20045;-41
2023/04/07 11:38:54;;;;;;;15.60;14.20;;;11.30;99.90;;;;;;5039179;28;20064;-47
2023/04/07 11:41:20;;;;;;;15.40;14.00;;;11.30;99.90;;;;;;5057578;28;20129;-48
2023/04/07 11:43:46;;;;;;;13.70;12.50;;;11.40;99.90;;;;;;5056653;28;20127;-44
2023/04/07 11:46:14;;;;;;;14.32;12.95;;;11.40;99.90;;;;;;5039918;28;20382;-50
2023/04/07 11:48:42;;;;;;;12.10;11.00;;;11.40;99.90;;;;;;5024252;28;20108;-44
2023/04/07 11:51:24;;;;;;;11.43;10.32;;;11.50;99.90;;;;;;5071010;28;20490;-43
2023/04/07 11:53:56;;;;;;;11.43;10.40;;;11.60;99.90;;;;;;5054437;28;20051;-45
2023/04/07 11:56:22;;;;;;;10.68;9.68;;;11.80;99.90;;;;;;5077360;28;20044;-52
2023/04/07 11:58:52;;;;;;;11.98;10.88;;;11.90;99.90;;;;;;5078170;28;20434;-44
2023/04/07 12:01:18;;;;;;;15.77;10.05;;;12.00;99.90;;;;;;5065718;28;20390;-44
2023/04/07 12:03:57;;;;;;;11.35;10.35;;;12.00;99.90;;;;;;5077388;28;20044;-37
2023/04/07 12:06:34;;;;;;;10.52;9.60;;;11.90;99.90;;;;;;5076554;28;20044;-40
2023/04/07 12:09:01;;;;;;;10.82;9.82;;;11.80;99.90;;;;;;5038848;28;20505;-43
2023/04/07 12:11:27;;;;;;;9.43;8.48;;;11.80;99.90;;;;;;5057106;28;20560;-49
2023/04/07 12:13:53;;;;;;;8.85;8.10;;;11.60;99.90;;;;;;5056062;28;20056;-43
2023/04/07 12:16:22;;;;;;;9.10;8.15;;;11.60;99.90;;;;;;5057872;28;20051;-50
2023/04/07 12:18:48;;;;;;;9.32;7.50;;;11.60;99.90;;;;;;5056556;28;20045;-48
2023/04/07 12:21:14;;;;;;;7.60;6.90;;;11.70;99.90;;;;;;5056924;28;20370;-43
2023/04/07 12:23:40;;;;;;;9.05;7.22;;;11.60;99.90;;;;;;5037868;28;20401;-41
2023/04/07 12:26:06;;;;;;;8.07;7.35;;;11.70;99.90;;;;;;5057393;28;20083;-41
2023/04/07 12:28:32;;;;;;;8.52;7.72;;;11.70;99.90;;;;;;5055886;28;20115;-52
2023/04/07 12:30:58;;;;;;;7.80;7.10;;;11.80;99.90;;;;;;5056120;28;20055;-43
2023/04/07 12:33:24;;;;;;;6.88;5.72;;;11.90;99.90;;;;;;5056544;28;20032;-44
2023/04/07 12:35:50;;;;;;;5.78;5.28;;;11.90;99.90;;;;;;5055189;28;20087;-46
2023/04/07 12:38:16;;;;;;;6.50;5.90;;;11.80;99.90;;;;;;5055824;28;20040;-46